X  Close Metar Aviation Weather Data     YPAD Adelaide International Airport
Temperature
14°C Temperature
7°C Dewpoint
63% Humidity



Wind
10 KM/H
6 MPH
3 M/S
5 KTS



270°
West
Current Conditions

Clear Clear
Pressure 1017.92 (hPa) - 30.06 (inHg)
Visibility 6.2 (mile) - 10 (km)
Airport
Airport-code YPAD

Location: Adelaide International Airport
Distance: 20 (km)

Metar:
YPAD 231030Z 27005KT 230V320 CAVOK 14/07 Q1018

Time: 23-09-2021 8:00 pm ACST